Waukau, WI (54980)

8:39 AM CDT on September 30, 2014 (GMT -0500)
City of Omro | Change Station
CLOSE
Current Station
Personal Weather Station
Location: Omro, WI
Elevation: 764 ft
Nearby Weather Stations

Elev 764 ft 44.03 °N, 88.75 °W | Updated 11 seconds ago

Overcast
Overcast
43.0 °F
Feels Like 41 °F
N
4.0
Wind Variable Wind from NNE
Gusts 11.4 mph

Today
High -- | Low -- °F
--% Chance of Precip.
Yesterday
High -- | Low -- °F
Precip. -- in
6:51 AM 6:37 PM
Waxing Crescent, 37% visible
Pressure 30.11 in
Visibility 10.0 miles
Clouds Overcast 1300 ft
Windchill 41 °F
Dew Point 38 °F
Humidity 81%
Rainfall 0.00 in
Snow Depth Not available.
UV 0 out of 12
Pollen 2.00 out of 12
PM2.5 Good
Flu Activity Not available.
METAR KOSH 301253Z 36008KT 10SM OVC013 07/04 A3010 RMK AO2 SLP195 T00670039

More Conditions Fewer Conditions

Pressure 30.11 in
Visibility 10.0 miles
Clouds Overcast 1300 ft
Windchill 41 °F
Dew Point 38 °F
Humidity 81%
Rainfall 0.00 in
Snow Depth Not available.
UV 0 out of 12
Pollen 2.00 out of 12
PM2.5 Good
Flu Activity Not available.
METAR KOSH 301253Z 36008KT 10SM OVC013 07/04 A3010 RMK AO2 SLP195 T00670039

More Conditions Fewer Conditions

10-Day Weather Forecast

Almanac

Astronomy

Sep. 30, 2014 Rise Set
Actual Time 6:51 AM CDT 6:37 PM CDT
Civil Twilight 6:22 AM CDT 7:06 PM CDT
Nautical Twilight 5:49 AM CDT 7:39 PM CDT
Astronomical Twilight 5:15 AM CDT 8:13 PM CDT
Moon 1:08 PM CDT 10:58 PM CDT
Length of Visible Light 12h 43m
Length of Day
11h 46m
Tomorrow will be 3m 0s shorter.
Waxing Crescent, 37% of the Moon is Illuminated
Today
Waxing Crescent
Oct 1
First Quarter
Oct 8
Full
Oct 15
Last Quarter
Oct 23
New

Today's Extremes

State Highs State Lows

Community

WunderPhotos

Upload Photos

1,757,636 photos uploaded!

Nearby

Air Quality

  Air Quality AQ Index Pollutant
Yesterday Good
PM10
Yesterday Good
OZONE
Current Good
PM2.5
Tuesday Good
PM2.5
Tuesday Good
OZONE
Wednesday Good
PM2.5
Wednesday Good
OZONE
Thursday Good
PM2.5
Thursday Good
OZONE
Friday Good
PM2.5
Friday Good
OZONE
Saturday Good
PM2.5
Saturday Good
OZONE

Snow Depth

Station Depth Elevation
No new snow has been reported.

Earthquake Activity

City Distance Mag. Time & Date
No recent earthquake activity has been reported nearby.
Minimum magnitude displayed is 2.5.

Coastal Water Temperatures

Place Temperature
No Stations Reporting

Nearby Weather Stations